createdAt,value
2022-12-03T00:00:12.406Z,99210.72
2022-12-03T00:03:00.916Z,99206.59
2022-12-03T00:05:28.343Z,99217.88
2022-12-03T00:07:56.082Z,99216.19
2022-12-03T00:10:23.372Z,99214.56
2022-12-03T00:12:51.029Z,99206.59
2022-12-03T00:15:18.493Z,99215.38
2022-12-03T00:17:46.310Z,99216.19
2022-12-03T00:20:19.878Z,99212.56
2022-12-03T00:22:47.482Z,99220.69
2022-12-03T00:25:14.822Z,99224.97
2022-12-03T00:27:42.577Z,99225.16
2022-12-03T00:30:10.904Z,99226.81
2022-12-03T00:32:38.484Z,99218.19
2022-12-03T00:35:06.061Z,99212.06
2022-12-03T00:37:35.185Z,99208.56
2022-12-03T00:40:04.886Z,99205.91
2022-12-03T00:42:32.599Z,99199.75
2022-12-03T00:45:00.099Z,99205.91
2022-12-03T00:47:27.702Z,99199.75
2022-12-03T00:49:55.020Z,99198.94
2022-12-03T00:52:22.591Z,99195.31
2022-12-03T00:54:50.032Z,99201.59
2022-12-03T00:57:17.811Z,99188.31
2022-12-03T00:59:45.409Z,99186.66
2022-12-03T01:02:13.300Z,99189.31
2022-12-03T01:04:41.626Z,99185.84
2022-12-03T01:07:09.269Z,99179.69
2022-12-03T01:09:36.513Z,99184.00
2022-12-03T01:12:04.811Z,99186.66
2022-12-03T01:14:32.888Z,99187.66
2022-12-03T01:17:00.424Z,99191.31
2022-12-03T01:19:27.968Z,99183.34
2022-12-03T01:21:55.585Z,99192.28
2022-12-03T01:24:22.980Z,99189.47
2022-12-03T01:26:50.534Z,99183.34
2022-12-03T01:29:17.893Z,99184.34
2022-12-03T01:32:03.858Z,99183.34
2022-12-03T01:34:31.165Z,99192.28
2022-12-03T01:36:58.714Z,99189.66
2022-12-03T01:39:26.194Z,99188.00
2022-12-03T01:41:55.008Z,99185.34
2022-12-03T01:44:28.199Z,99177.69
2022-12-03T01:46:58.312Z,99176.03
2022-12-03T01:49:30.115Z,99175.22
2022-12-03T01:51:58.857Z,99176.41
2022-12-03T01:54:30.248Z,99183.34
2022-12-03T01:56:58.236Z,99182.69
2022-12-03T01:59:35.725Z,99182.69
2022-12-03T02:02:14.869Z,99178.19
2022-12-03T02:04:42.346Z,99176.56
2022-12-03T02:07:18.240Z,99173.06
2022-12-03T02:09:45.810Z,99168.75
2022-12-03T02:12:17.593Z,99167.94
2022-12-03T02:14:45.338Z,99172.41
2022-12-03T02:17:13.381Z,99180.19
2022-12-03T02:19:40.896Z,99172.41
2022-12-03T02:22:32.740Z,99175.22
2022-12-03T02:25:09.402Z,99186.66
2022-12-03T02:27:37.912Z,99179.72
2022-12-03T02:30:07.078Z,99190.31
2022-12-03T02:32:34.685Z,99192.16
2022-12-03T02:35:02.020Z,99192.31
2022-12-03T02:37:36.584Z,99187.00
2022-12-03T02:40:09.149Z,99197.63
2022-12-03T02:42:37.762Z,99193.13
2022-12-03T02:45:07.228Z,99185.19
2022-12-03T02:47:39.107Z,99189.66
2022-12-03T02:50:08.441Z,99184.34
2022-12-03T02:52:36.442Z,99181.84
2022-12-03T02:55:06.824Z,99178.38
2022-12-03T02:57:37.582Z,99173.06
2022-12-03T03:00:07.001Z,99175.72
2022-12-03T03:02:37.242Z,99166.09
2022-12-03T03:05:07.352Z,99174.03
2022-12-03T03:07:35.868Z,99182.88
2022-12-03T03:10:07.020Z,99182.00
2022-12-03T03:12:39.001Z,99185.69
2022-12-03T03:15:09.227Z,99189.16
2022-12-03T03:17:37.402Z,99184.00
2022-12-03T03:20:06.875Z,99173.38
2022-12-03T03:22:36.540Z,99181.03
2022-12-03T03:25:07.074Z,99190.63
2022-12-03T03:27:35.536Z,99189.00
2022-12-03T03:30:04.575Z,99185.53
2022-12-03T03:32:32.959Z,99181.03
2022-12-03T03:35:00.975Z,99179.19
2022-12-03T03:37:29.122Z,99174.72
2022-12-03T03:39:56.668Z,99174.72
2022-12-03T03:42:24.723Z,99177.22
2022-12-03T03:44:52.538Z,99176.22
2022-12-03T03:47:20.566Z,99178.03
2022-12-03T03:49:50.568Z,99176.38
2022-12-03T03:52:19.661Z,99177.22
2022-12-03T03:54:47.317Z,99177.22
2022-12-03T03:57:14.936Z,99173.75
2022-12-03T03:59:42.455Z,99175.72
2022-12-03T04:02:21.831Z,99171.09
2022-12-03T04:04:49.814Z,99171.09
2022-12-03T04:07:17.482Z,99172.72
2022-12-03T04:09:44.996Z,99171.09
2022-12-03T04:12:31.646Z,99169.41
2022-12-03T04:14:59.539Z,99176.38
2022-12-03T04:17:27.115Z,99168.44
2022-12-03T04:19:54.326Z,99167.41
2022-12-03T04:22:40.032Z,99175.38
2022-12-03T04:25:27.087Z,99185.34
2022-12-03T04:28:13.057Z,99183.34
2022-12-03T04:30:40.520Z,99184.34
2022-12-03T04:33:27.628Z,99185.19
2022-12-03T04:35:54.924Z,99184.34
2022-12-03T04:38:22.742Z,99178.22
2022-12-03T04:41:01.834Z,99181.69
2022-12-03T04:43:34.620Z,99178.38
2022-12-03T04:46:02.038Z,99181.84
2022-12-03T04:48:29.616Z,99181.69
2022-12-03T04:50:56.938Z,99177.38
2022-12-03T04:53:44.739Z,99174.72
2022-12-03T04:56:13.392Z,99180.03
2022-12-03T04:58:41.018Z,99174.72
2022-12-03T05:01:08.338Z,99169.41
2022-12-03T05:03:36.003Z,99157.16
2022-12-03T05:06:04.039Z,99154.50
2022-12-03T05:08:31.610Z,99165.09
2022-12-03T05:10:58.897Z,99173.06
2022-12-03T05:13:26.556Z,99172.25
2022-12-03T05:15:53.814Z,99164.09
2022-12-03T05:18:21.362Z,99163.28
2022-12-03T05:20:53.160Z,99167.75
2022-12-03T05:23:22.055Z,99166.94
2022-12-03T05:25:49.474Z,99170.41
2022-12-03T05:28:17.109Z,99162.44
2022-12-03T05:30:44.369Z,99160.78
2022-12-03T05:33:12.054Z,99156.31
2022-12-03T05:35:39.319Z,99162.44
2022-12-03T05:38:06.902Z,99162.44
2022-12-03T05:40:34.204Z,99165.25
2022-12-03T05:43:01.814Z,99164.44
2022-12-03T05:45:32.252Z,99160.97
2022-12-03T05:48:00.646Z,99159.13
2022-12-03T05:50:31.235Z,99159.97
2022-12-03T05:52:59.817Z,99164.44
2022-12-03T05:55:27.823Z,99171.59
2022-12-03T05:57:55.977Z,99167.09
2022-12-03T06:00:42.359Z,99167.25
2022-12-03T06:03:11.015Z,99168.06
2022-12-03T06:05:38.563Z,99169.75
2022-12-03T06:08:06.738Z,99168.06
2022-12-03T06:10:34.153Z,99179.69
2022-12-03T06:13:03.132Z,99170.91
2022-12-03T06:15:30.524Z,99179.69
2022-12-03T06:17:58.120Z,99182.19
2022-12-03T06:20:25.388Z,99177.03
2022-12-03T06:22:53.049Z,99174.56
2022-12-03T06:25:20.424Z,99177.03
2022-12-03T06:27:47.948Z,99177.03
2022-12-03T06:30:15.301Z,99175.41
2022-12-03T06:32:42.884Z,99184.34
2022-12-03T06:35:10.185Z,99185.16
2022-12-03T06:37:37.704Z,99177.03
2022-12-03T06:40:05.525Z,99182.50
2022-12-03T06:42:33.085Z,99186.03
2022-12-03T06:45:00.299Z,99200.13
2022-12-03T06:47:27.824Z,99201.94
2022-12-03T06:49:55.302Z,99200.94
2022-12-03T06:52:22.992Z,99206.41
2022-12-03T06:54:50.286Z,99205.56
2022-12-03T06:57:18.295Z,99211.91
2022-12-03T06:59:45.584Z,99206.41
2022-12-03T07:02:13.200Z,99205.56
2022-12-03T07:04:44.787Z,99209.91
2022-12-03T07:07:14.571Z,99206.41
2022-12-03T07:09:42.508Z,99209.25
2022-12-03T07:12:10.347Z,99216.19
2022-12-03T07:14:37.718Z,99205.56
2022-12-03T07:17:05.252Z,99205.56
2022-12-03T07:19:33.262Z,99205.56
2022-12-03T07:22:01.100Z,99209.06
2022-12-03T07:24:28.508Z,99209.25
2022-12-03T07:26:56.170Z,99212.88
2022-12-03T07:29:23.444Z,99212.88
2022-12-03T07:31:51.083Z,99219.19
2022-12-03T07:34:18.459Z,99217.34
2022-12-03T07:36:46.056Z,99216.53
2022-12-03T07:39:14.841Z,99212.03
2022-12-03T07:41:42.457Z,99212.88
2022-12-03T07:44:14.300Z,99219.84
2022-12-03T07:46:42.681Z,99214.53
2022-12-03T07:49:12.036Z,99212.88
2022-12-03T07:51:39.744Z,99212.88
2022-12-03T07:54:07.108Z,99218.19
2022-12-03T07:56:34.824Z,99205.91
2022-12-03T07:59:02.117Z,99205.91
2022-12-03T08:01:29.734Z,99200.59
2022-12-03T08:03:57.145Z,99200.59
2022-12-03T08:06:24.763Z,99201.44
2022-12-03T08:08:52.033Z,99194.63
2022-12-03T08:11:19.960Z,99203.25
2022-12-03T08:13:47.257Z,99205.06
2022-12-03T08:16:20.645Z,99206.75
2022-12-03T08:18:50.038Z,99207.56
2022-12-03T08:21:21.177Z,99199.59
2022-12-03T08:23:48.470Z,99200.59
2022-12-03T08:26:22.318Z,99197.97
2022-12-03T08:28:50.293Z,99204.25
2022-12-03T08:31:32.697Z,99199.75
2022-12-03T08:34:18.653Z,99198.94
2022-12-03T08:36:47.757Z,99199.75
2022-12-03T08:39:35.409Z,99198.94
2022-12-03T08:42:24.437Z,99197.97
2022-12-03T08:44:52.720Z,99205.91
2022-12-03T08:47:22.961Z,99201.59
2022-12-03T08:49:55.176Z,99200.75
2022-12-03T08:52:26.730Z,99205.91
2022-12-03T08:54:55.855Z,99208.56
2022-12-03T08:57:32.234Z,99215.69
2022-12-03T09:00:20.892Z,99212.19
2022-12-03T09:02:54.282Z,99213.22
2022-12-03T09:05:30.087Z,99214.03
2022-12-03T09:07:57.886Z,99213.22
2022-12-03T09:10:25.157Z,99213.22
2022-12-03T09:12:52.764Z,99207.91
2022-12-03T09:15:20.445Z,99215.88
2022-12-03T09:17:48.876Z,99212.34
2022-12-03T09:20:17.177Z,99212.34
2022-12-03T09:22:44.713Z,99211.53
2022-12-03T09:25:12.068Z,99217.66
2022-12-03T09:27:39.791Z,99211.53
2022-12-03T09:30:07.751Z,99223.81
2022-12-03T09:32:35.326Z,99218.50
2022-12-03T09:35:02.601Z,99220.16
2022-12-03T09:37:30.366Z,99216.53
2022-12-03T09:39:57.632Z,99220.97
2022-12-03T09:42:26.151Z,99212.19
2022-12-03T09:44:54.414Z,99220.00
2022-12-03T09:47:22.913Z,99225.97
2022-12-03T09:49:50.199Z,99209.25
2022-12-03T09:52:25.880Z,99214.53
2022-12-03T09:54:53.949Z,99218.19
2022-12-03T09:57:22.294Z,99212.88
2022-12-03T09:59:49.556Z,99216.53
2022-12-03T10:02:25.024Z,99219.00
2022-12-03T10:04:53.638Z,99212.88
2022-12-03T10:07:22.273Z,99218.03
2022-12-03T10:09:49.685Z,99215.38
2022-12-03T10:12:24.515Z,99205.56
2022-12-03T10:14:54.186Z,99214.53
2022-12-03T10:17:22.167Z,99205.56
2022-12-03T10:19:50.008Z,99210.06
2022-12-03T10:22:17.710Z,99204.75
2022-12-03T10:24:45.190Z,99200.25
2022-12-03T10:27:29.134Z,99200.25
2022-12-03T10:29:59.105Z,99209.25
2022-12-03T10:32:39.533Z,99196.94
2022-12-03T10:35:13.471Z,99201.28
2022-12-03T10:37:56.371Z,99194.13
2022-12-03T10:40:26.632Z,99189.66
2022-12-03T10:43:13.804Z,99185.16
2022-12-03T10:45:41.728Z,99187.66
2022-12-03T10:48:16.368Z,99187.66
2022-12-03T10:51:00.964Z,99184.00
2022-12-03T10:53:30.779Z,99189.00
2022-12-03T10:56:01.788Z,99181.69
2022-12-03T10:58:40.557Z,99178.88
2022-12-03T11:01:17.528Z,99180.69
2022-12-03T11:03:45.851Z,99184.66
2022-12-03T11:06:19.834Z,99178.38
2022-12-03T11:08:56.820Z,99174.72
2022-12-03T11:11:30.986Z,99173.41
2022-12-03T11:14:00.505Z,99169.41
2022-12-03T11:16:39.946Z,99172.72
2022-12-03T11:19:18.722Z,99175.69
2022-12-03T11:22:07.058Z,99178.69
2022-12-03T11:24:37.147Z,99168.56
2022-12-03T11:27:04.557Z,99172.69
2022-12-03T11:29:49.571Z,99174.06
2022-12-03T11:32:38.695Z,99164.75
2022-12-03T11:35:24.620Z,99164.44
2022-12-03T11:37:51.772Z,99160.25
2022-12-03T11:40:19.866Z,99164.75
2022-12-03T11:42:48.274Z,99172.06
2022-12-03T11:45:22.567Z,99169.59
2022-12-03T11:47:58.835Z,99156.75
2022-12-03T11:50:39.709Z,99160.13
2022-12-03T11:53:07.730Z,99152.16
2022-12-03T11:55:41.371Z,99153.13
2022-12-03T11:58:23.273Z,99145.16
2022-12-03T12:00:56.264Z,99147.00
2022-12-03T12:03:32.903Z,99144.50
2022-12-03T12:06:13.006Z,99140.00
2022-12-03T12:08:49.601Z,99141.84
2022-12-03T12:11:29.592Z,99142.50
2022-12-03T12:14:06.096Z,99139.19
2022-12-03T12:16:52.082Z,99146.84
2022-12-03T12:19:41.406Z,99150.34
2022-12-03T12:22:18.332Z,99146.31
2022-12-03T12:25:00.629Z,99141.00
2022-12-03T12:27:45.110Z,99135.53
2022-12-03T12:30:12.450Z,99142.34
2022-12-03T12:32:49.974Z,99135.38
2022-12-03T12:35:23.022Z,99130.72
2022-12-03T12:37:59.942Z,99121.09
2022-12-03T12:40:30.320Z,99128.88
2022-12-03T12:43:04.301Z,99128.06
2022-12-03T12:45:41.339Z,99125.25
2022-12-03T12:48:09.711Z,99115.44
2022-12-03T12:50:38.123Z,99115.25
2022-12-03T12:53:25.179Z,99117.28
2022-12-03T12:56:15.490Z,99115.25
2022-12-03T12:58:43.128Z,99122.09
2022-12-03T13:01:24.907Z,99114.28
2022-12-03T13:03:53.498Z,99112.28
2022-12-03T13:06:30.052Z,99118.41
2022-12-03T13:09:01.038Z,99115.91
2022-12-03T13:11:37.157Z,99128.22
2022-12-03T13:14:23.887Z,99125.56
2022-12-03T13:16:53.144Z,99122.91
2022-12-03T13:19:39.609Z,99125.56
2022-12-03T13:22:22.512Z,99124.53
2022-12-03T13:24:51.332Z,99126.22
2022-12-03T13:27:19.531Z,99123.56
2022-12-03T13:30:00.648Z,99128.72
2022-12-03T13:32:30.957Z,99133.16
2022-12-03T13:35:22.800Z,99133.16
2022-12-03T13:37:50.111Z,99140.16
2022-12-03T13:40:34.834Z,99135.66
2022-12-03T13:43:14.915Z,99140.81
2022-12-03T13:45:48.041Z,99132.84
2022-12-03T13:48:34.479Z,99135.66
2022-12-03T13:51:14.299Z,99131.19
2022-12-03T13:53:42.560Z,99133.00
2022-12-03T13:56:19.319Z,99133.16
2022-12-03T13:58:46.805Z,99124.88
2022-12-03T14:01:14.407Z,99123.22
2022-12-03T14:03:41.789Z,99121.56
2022-12-03T14:06:09.543Z,99129.53
2022-12-03T14:08:37.421Z,99132.19
2022-12-03T14:11:05.179Z,99131.19
2022-12-03T14:13:32.632Z,99134.50
2022-12-03T14:16:00.296Z,99123.88
2022-12-03T14:18:27.843Z,99127.53
2022-12-03T14:20:55.529Z,99123.88
2022-12-03T14:23:23.119Z,99121.38
2022-12-03T14:25:50.824Z,99124.88
2022-12-03T14:28:18.144Z,99113.59
2022-12-03T14:30:45.698Z,99114.25
2022-12-03T14:33:12.965Z,99115.25
2022-12-03T14:35:41.142Z,99108.28
2022-12-03T14:38:08.599Z,99117.72
2022-12-03T14:40:36.158Z,99118.72
2022-12-03T14:43:03.473Z,99118.56
2022-12-03T14:45:31.088Z,99118.56
2022-12-03T14:47:58.361Z,99116.91
2022-12-03T14:50:25.921Z,99122.03
2022-12-03T14:52:53.368Z,99130.50
2022-12-03T14:55:21.757Z,99131.31
2022-12-03T14:57:49.598Z,99130.66
2022-12-03T15:00:17.731Z,99132.16
2022-12-03T15:02:45.897Z,99135.81
2022-12-03T15:05:13.568Z,99128.50
2022-12-03T15:07:41.027Z,99132.16
2022-12-03T15:10:08.958Z,99135.47
2022-12-03T15:12:37.474Z,99126.84
2022-12-03T15:15:05.471Z,99131.00
2022-12-03T15:17:32.824Z,99121.19
2022-12-03T15:20:00.491Z,99127.31
2022-12-03T15:22:27.841Z,99129.16
2022-12-03T15:24:55.589Z,99131.00
2022-12-03T15:27:23.371Z,99130.16
2022-12-03T15:29:51.044Z,99144.44
2022-12-03T15:32:18.646Z,99139.94
2022-12-03T15:34:46.587Z,99144.44
2022-12-03T15:37:14.945Z,99136.81
2022-12-03T15:39:48.145Z,99140.81
2022-12-03T15:42:16.044Z,99144.66
2022-12-03T15:44:44.120Z,99136.19
2022-12-03T15:47:11.414Z,99145.31
2022-12-03T15:49:39.001Z,99139.50
2022-12-03T15:52:07.744Z,99144.00
2022-12-03T15:54:35.298Z,99138.19
2022-12-03T15:57:02.713Z,99136.72
2022-12-03T15:59:30.288Z,99127.25
2022-12-03T16:01:57.966Z,99143.19
2022-12-03T16:04:25.864Z,99137.19
2022-12-03T16:06:53.095Z,99143.19
2022-12-03T16:09:27.076Z,99142.50
2022-12-03T16:11:55.270Z,99138.03
2022-12-03T16:14:22.919Z,99143.47
2022-12-03T16:16:50.319Z,99139.19
2022-12-03T16:19:17.895Z,99140.81
2022-12-03T16:21:45.157Z,99139.34
2022-12-03T16:24:12.966Z,99131.53
2022-12-03T16:26:40.648Z,99138.53
2022-12-03T16:29:08.832Z,99134.19
2022-12-03T16:31:36.146Z,99133.38
2022-12-03T16:34:03.850Z,99128.88
2022-12-03T16:36:31.442Z,99127.09
2022-12-03T16:38:59.105Z,99120.28
2022-12-03T16:41:26.578Z,99128.25
2022-12-03T16:43:54.312Z,99117.63
2022-12-03T16:46:26.157Z,99121.28
2022-12-03T16:48:58.137Z,99125.59
2022-12-03T16:51:27.014Z,99122.28
2022-12-03T16:53:56.412Z,99125.59
2022-12-03T16:56:23.796Z,99123.09
2022-12-03T16:58:51.380Z,99119.63
2022-12-03T17:01:18.905Z,99120.59
2022-12-03T17:03:46.739Z,99126.94
2022-12-03T17:06:15.379Z,99122.59
2022-12-03T17:08:48.786Z,99125.25
2022-12-03T17:11:17.288Z,99122.59
2022-12-03T17:13:47.397Z,99118.47
2022-12-03T17:16:14.811Z,99113.16
2022-12-03T17:18:42.944Z,99119.28
2022-12-03T17:21:10.316Z,99111.66
2022-12-03T17:23:38.369Z,99103.72
2022-12-03T17:26:05.640Z,99107.34
2022-12-03T17:28:33.169Z,99102.03
2022-12-03T17:31:00.530Z,99103.03
2022-12-03T17:33:28.177Z,99098.41
2022-12-03T17:35:55.407Z,99095.91
2022-12-03T17:38:22.988Z,99101.22
2022-12-03T17:40:50.289Z,99094.25
2022-12-03T17:43:18.036Z,99093.41
2022-12-03T17:45:46.127Z,99092.44
2022-12-03T17:48:13.692Z,99094.41
2022-12-03T17:50:41.198Z,99098.72
2022-12-03T17:53:10.440Z,99085.78
2022-12-03T17:55:44.265Z,99095.41
2022-12-03T17:58:12.917Z,99087.44
2022-12-03T18:00:40.200Z,99084.78
2022-12-03T18:03:07.972Z,99089.28
2022-12-03T18:05:35.563Z,99092.94
2022-12-03T18:08:03.346Z,99092.13
2022-12-03T18:10:31.202Z,99085.94
2022-12-03T18:13:01.967Z,99091.44
2022-12-03T18:15:30.395Z,99087.78
2022-12-03T18:17:58.104Z,99090.44
2022-12-03T18:20:25.361Z,99086.16
2022-12-03T18:22:53.130Z,99081.81
2022-12-03T18:25:20.513Z,99076.50
2022-12-03T18:27:48.100Z,99074.88
2022-12-03T18:30:15.459Z,99074.88
2022-12-03T18:32:43.050Z,99069.56
2022-12-03T18:35:10.329Z,99074.00
2022-12-03T18:37:38.611Z,99073.19
2022-12-03T18:40:12.695Z,99069.56
2022-12-03T18:42:40.958Z,99069.56
2022-12-03T18:45:11.788Z,99067.06
2022-12-03T18:47:39.403Z,99067.88
2022-12-03T18:50:07.576Z,99066.25
2022-12-03T18:52:35.397Z,99059.25
2022-12-03T18:55:04.897Z,99056.78
2022-12-03T18:57:32.501Z,99062.09
2022-12-03T18:59:59.915Z,99062.09
2022-12-03T19:05:15.795Z,99062.94
2022-12-03T19:07:43.530Z,99062.25
2022-12-03T19:10:11.918Z,99058.59
2022-12-03T19:12:39.608Z,99065.75
2022-12-03T19:15:07.596Z,99064.91
2022-12-03T19:17:35.440Z,99068.56
2022-12-03T19:20:03.236Z,99062.94
2022-12-03T19:22:31.432Z,99065.56
2022-12-03T19:24:58.688Z,99068.69
2022-12-03T19:27:29.701Z,99073.50
2022-12-03T19:29:57.901Z,99073.81
2022-12-03T19:32:25.613Z,99069.19
2022-12-03T19:34:53.128Z,99070.81
2022-12-03T19:37:21.266Z,99071.47
2022-12-03T19:39:53.213Z,99066.00
2022-12-03T19:42:21.771Z,99073.78
2022-12-03T19:44:48.988Z,99069.31
2022-12-03T19:47:16.615Z,99074.44
2022-12-03T19:49:43.923Z,99074.31
2022-12-03T19:52:11.598Z,99073.13
2022-12-03T19:54:38.842Z,99068.69
2022-12-03T19:57:06.501Z,99077.47
2022-12-03T19:59:33.804Z,99076.44
2022-12-03T20:02:01.672Z,99078.13
2022-12-03T20:04:29.000Z,99081.25
2022-12-03T20:06:56.718Z,99082.25
2022-12-03T20:09:24.041Z,99085.75
2022-12-03T20:11:51.826Z,99081.91
2022-12-03T20:14:19.710Z,99069.63
2022-12-03T20:16:47.917Z,99080.09
2022-12-03T20:19:17.125Z,99066.81
2022-12-03T20:21:44.929Z,99070.47
2022-12-03T20:24:18.167Z,99062.31
2022-12-03T20:26:46.252Z,99060.66
2022-12-03T20:29:14.064Z,99066.81
2022-12-03T20:31:41.675Z,99061.50
2022-12-03T20:34:10.705Z,99055.84
2022-12-03T20:36:39.294Z,99065.44
2022-12-03T20:39:07.424Z,99061.81
2022-12-03T20:41:36.544Z,99063.44
2022-12-03T20:44:06.229Z,99060.78
2022-12-03T20:46:33.855Z,99060.47
2022-12-03T20:49:01.247Z,99057.16
2022-12-03T20:51:30.918Z,99065.78
2022-12-03T20:54:00.123Z,99055.97
2022-12-03T20:56:33.947Z,99061.78
2022-12-03T20:59:07.007Z,99067.75
2022-12-03T21:01:35.925Z,99058.75
2022-12-03T21:04:04.972Z,99070.06
2022-12-03T21:06:35.722Z,99055.41
2022-12-03T21:09:06.012Z,99063.22
2022-12-03T21:11:35.779Z,99055.06
2022-12-03T21:14:04.178Z,99063.03
2022-12-03T21:17:06.443Z,99063.03
2022-12-03T21:19:26.463Z,99063.69
2022-12-03T21:21:54.108Z,99065.34
2022-12-03T21:24:21.434Z,99068.69
2022-12-03T21:26:50.182Z,99067.81
2022-12-03T21:29:18.171Z,99080.94
2022-12-03T21:31:46.549Z,99076.44
2022-12-03T21:34:14.043Z,99074.00
2022-12-03T21:36:41.823Z,99068.69
2022-12-03T21:39:09.328Z,99075.63
2022-12-03T21:41:36.981Z,99072.97
2022-12-03T21:44:04.332Z,99072.00
2022-12-03T21:47:12.621Z,99079.31
2022-12-03T21:49:20.244Z,99070.69
2022-12-03T21:51:48.330Z,99074.00
2022-12-03T21:54:15.717Z,99072.31
2022-12-03T21:56:43.340Z,99077.63
2022-12-03T21:59:10.671Z,99070.69
2022-12-03T22:01:41.688Z,99065.34
2022-12-03T22:04:12.929Z,99053.88
2022-12-03T22:06:40.515Z,99065.69
2022-12-03T22:09:07.855Z,99060.03
2022-12-03T22:11:35.528Z,99047.75
2022-12-03T22:14:04.670Z,99054.38
2022-12-03T22:16:32.515Z,99055.56
2022-12-03T22:18:59.889Z,99056.22
2022-12-03T22:21:27.647Z,99058.69
2022-12-03T22:23:56.041Z,99047.06
2022-12-03T22:26:23.595Z,99050.72
2022-12-03T22:28:51.401Z,99049.06
2022-12-03T22:31:19.094Z,99049.53
2022-12-03T22:33:48.370Z,99049.53
2022-12-03T22:36:21.122Z,99049.72
2022-12-03T22:38:51.714Z,99040.09
2022-12-03T22:41:19.876Z,99033.59
2022-12-03T22:43:48.348Z,99031.09
2022-12-03T22:46:16.345Z,99031.28
2022-12-03T22:48:45.558Z,99035.59
2022-12-03T22:51:19.739Z,99038.25
2022-12-03T22:53:47.997Z,99034.59
2022-12-03T22:56:17.161Z,99042.56
2022-12-03T22:58:44.483Z,99038.44
2022-12-03T23:01:24.531Z,99040.09
2022-12-03T23:03:52.467Z,99042.56
2022-12-03T23:06:20.909Z,99031.09
2022-12-03T23:08:48.398Z,99031.94
2022-12-03T23:11:16.895Z,99024.16
2022-12-03T23:13:44.661Z,99024.16
2022-12-03T23:16:18.467Z,99023.31
2022-12-03T23:18:46.097Z,99017.16
2022-12-03T23:21:29.543Z,99016.19
2022-12-03T23:24:02.468Z,99015.53
2022-12-03T23:26:30.405Z,99017.97
2022-12-03T23:28:57.998Z,99017.16
2022-12-03T23:31:29.499Z,99020.84
2022-12-03T23:33:58.137Z,99019.16
2022-12-03T23:36:28.328Z,99019.16
2022-12-03T23:38:55.808Z,99007.56
2022-12-03T23:41:23.854Z,99010.22
2022-12-03T23:43:52.309Z,99010.22
2022-12-03T23:46:22.821Z,99000.41
2022-12-03T23:48:51.185Z,99003.88
2022-12-03T23:51:22.436Z,99001.22
2022-12-03T23:53:52.899Z,98997.91
2022-12-03T23:56:23.730Z,99000.56
2022-12-03T23:58:51.625Z,98997.75
